createdAt,value
2022-12-11T00:01:45.432Z,57.92
2022-12-11T00:06:51.263Z,57.65
2022-12-11T00:11:57.231Z,58.18
2022-12-11T00:17:03.701Z,57.98
2022-12-11T00:22:09.469Z,57.84
2022-12-11T00:27:15.109Z,57.59
2022-12-11T00:32:20.763Z,57.95
2022-12-11T00:37:26.683Z,57.30
2022-12-11T00:42:32.320Z,57.37
2022-12-11T00:47:37.905Z,57.56
2022-12-11T00:52:43.480Z,57.44
2022-12-11T00:57:53.691Z,58.05
2022-12-11T01:02:59.253Z,57.49
2022-12-11T01:08:05.885Z,57.47
2022-12-11T01:13:11.944Z,58.05
2022-12-11T01:18:17.771Z,58.38
2022-12-11T01:23:23.320Z,58.04
2022-12-11T01:28:28.974Z,58.59
2022-12-11T01:33:34.550Z,58.11
2022-12-11T01:38:40.190Z,58.58
2022-12-11T01:44:06.989Z,57.99
2022-12-11T01:49:16.113Z,58.37
2022-12-11T01:54:24.576Z,57.64
2022-12-11T01:59:34.806Z,58.08
2022-12-11T02:04:44.324Z,58.29
2022-12-11T02:09:50.831Z,58.37
2022-12-11T02:15:43.184Z,57.89
2022-12-11T02:20:59.991Z,57.84
2022-12-11T02:26:38.284Z,58.66
2022-12-11T02:31:54.960Z,58.64
2022-12-11T02:37:09.940Z,58.78
2022-12-11T02:42:19.009Z,58.48
2022-12-11T02:47:27.966Z,58.47
2022-12-11T02:52:35.339Z,58.42
2022-12-11T02:57:52.102Z,58.05
2022-12-11T03:02:58.893Z,58.24
2022-12-11T03:08:04.954Z,58.53
2022-12-11T03:13:11.040Z,58.31
2022-12-11T03:18:19.036Z,58.57
2022-12-11T03:23:38.247Z,57.69
2022-12-11T03:29:07.627Z,58.28
2022-12-11T03:34:26.337Z,57.31
2022-12-11T03:39:36.858Z,57.74
2022-12-11T03:44:50.607Z,57.79
2022-12-11T03:49:59.321Z,58.17
2022-12-11T03:55:08.034Z,57.94
2022-12-11T04:00:18.962Z,57.72
2022-12-11T04:05:24.730Z,58.60
2022-12-11T04:10:30.004Z,58.92
2022-12-11T04:15:35.993Z,59.00
2022-12-11T04:21:02.557Z,59.48
2022-12-11T04:26:13.881Z,59.29
2022-12-11T04:31:22.559Z,59.79
2022-12-11T04:36:27.857Z,60.00
2022-12-11T04:41:33.472Z,60.16
2022-12-11T04:46:39.175Z,60.04
2022-12-11T04:51:45.547Z,59.87
2022-12-11T04:56:52.354Z,60.32
2022-12-11T05:01:58.562Z,61.01
2022-12-11T05:07:04.339Z,61.27
2022-12-11T05:12:09.883Z,60.76
2022-12-11T05:17:15.107Z,60.79
2022-12-11T05:22:20.887Z,60.33
2022-12-11T05:27:26.543Z,60.77
2022-12-11T05:32:33.337Z,60.63
2022-12-11T05:37:38.575Z,61.09
2022-12-11T05:42:44.093Z,60.41
2022-12-11T05:47:49.773Z,60.37
2022-12-11T05:52:55.894Z,61.12
2022-12-11T05:58:01.961Z,61.00
2022-12-11T06:03:08.023Z,60.52
2022-12-11T06:08:15.533Z,60.81
2022-12-11T06:13:21.238Z,60.75
2022-12-11T06:18:26.935Z,60.94
2022-12-11T06:23:33.352Z,61.39
2022-12-11T06:28:39.854Z,61.02
2022-12-11T06:33:45.214Z,61.84
2022-12-11T06:38:51.821Z,61.24
2022-12-11T06:43:57.346Z,61.47
2022-12-11T06:49:05.120Z,61.73
2022-12-11T06:54:10.925Z,61.41
2022-12-11T06:59:16.787Z,61.46
2022-12-11T07:04:25.695Z,61.55
2022-12-11T07:09:31.429Z,61.84
2022-12-11T07:14:37.365Z,62.30
2022-12-11T07:19:43.314Z,61.77
2022-12-11T07:24:51.822Z,62.11
2022-12-11T07:29:57.817Z,62.09
2022-12-11T07:35:03.626Z,61.12
2022-12-11T07:40:10.440Z,62.35
2022-12-11T07:45:16.233Z,63.42
2022-12-11T07:50:21.837Z,63.09
2022-12-11T07:55:27.421Z,63.10
2022-12-11T08:00:32.824Z,62.72
2022-12-11T08:05:38.368Z,62.84
2022-12-11T08:10:44.136Z,63.03
2022-12-11T08:15:50.255Z,62.39
2022-12-11T08:20:55.855Z,62.45
2022-12-11T08:26:05.162Z,62.02
2022-12-11T08:31:12.869Z,62.26
2022-12-11T08:36:23.689Z,62.56
2022-12-11T08:41:31.384Z,62.29
2022-12-11T08:46:37.166Z,62.34
2022-12-11T08:51:43.131Z,62.76
2022-12-11T08:56:50.484Z,62.47
2022-12-11T09:02:00.383Z,62.38
2022-12-11T09:07:07.087Z,62.43
2022-12-11T09:12:13.480Z,61.84
2022-12-11T09:17:18.896Z,61.51
2022-12-11T09:22:24.335Z,61.59
2022-12-11T09:27:29.868Z,62.75
2022-12-11T09:32:35.131Z,62.98
2022-12-11T09:37:40.640Z,63.39
2022-12-11T09:43:18.898Z,63.70
2022-12-11T09:48:27.258Z,63.75
2022-12-11T09:53:37.448Z,63.88
2022-12-11T09:59:18.337Z,64.03
2022-12-11T10:04:48.613Z,64.14
2022-12-11T10:10:37.275Z,64.52
2022-12-11T10:16:29.235Z,65.05
2022-12-11T10:21:47.789Z,65.21
2022-12-11T10:27:01.230Z,65.57
2022-12-11T10:32:24.388Z,66.22
2022-12-11T10:37:30.284Z,66.77
2022-12-11T10:42:35.595Z,66.13
2022-12-11T10:47:41.821Z,65.99
2022-12-11T10:52:47.467Z,65.54
2022-12-11T10:58:20.361Z,65.43
2022-12-11T11:03:28.519Z,65.39
2022-12-11T11:08:49.380Z,65.55
2022-12-11T11:14:21.381Z,65.98
2022-12-11T11:19:35.783Z,65.87
2022-12-11T11:25:17.570Z,65.84
2022-12-11T11:30:38.901Z,66.43
2022-12-11T11:36:06.862Z,66.92
2022-12-11T11:41:52.030Z,67.24
2022-12-11T11:47:21.010Z,67.38
2022-12-11T11:52:37.464Z,67.33
2022-12-11T11:58:01.941Z,67.53
2022-12-11T12:03:32.236Z,68.32
2022-12-11T12:08:38.552Z,68.89
2022-12-11T12:13:57.838Z,68.41
2022-12-11T12:19:38.049Z,68.69
2022-12-11T12:24:53.263Z,68.71
2022-12-11T12:30:21.793Z,68.59
2022-12-11T12:35:41.498Z,69.01
2022-12-11T12:41:03.301Z,68.67
2022-12-11T12:46:22.959Z,69.04
2022-12-11T12:51:29.640Z,69.06
2022-12-11T12:56:40.022Z,68.98
2022-12-11T13:01:50.295Z,68.67
2022-12-11T13:06:56.961Z,68.68
2022-12-11T13:12:16.286Z,68.53
2022-12-11T13:17:22.454Z,68.12
2022-12-11T13:22:27.960Z,67.63
2022-12-11T13:27:40.199Z,67.47
2022-12-11T13:33:08.626Z,67.27
2022-12-11T13:38:21.816Z,66.84
2022-12-11T13:43:31.955Z,67.38
2022-12-11T13:48:43.179Z,66.86
2022-12-11T13:53:50.774Z,66.73
2022-12-11T13:58:57.712Z,67.01
2022-12-11T14:04:17.631Z,67.57
2022-12-11T14:09:26.865Z,67.91
2022-12-11T14:14:46.620Z,68.51
2022-12-11T14:19:52.838Z,69.05
2022-12-11T14:25:04.286Z,69.35
2022-12-11T14:30:13.795Z,69.54
2022-12-11T14:35:38.840Z,70.33
2022-12-11T14:40:50.782Z,70.59
2022-12-11T14:46:01.407Z,70.69
2022-12-11T14:51:15.199Z,71.12
2022-12-11T14:56:28.300Z,70.79
2022-12-11T15:01:39.251Z,70.27
2022-12-11T15:06:47.370Z,69.86
2022-12-11T15:11:55.978Z,68.60
2022-12-11T15:17:01.773Z,67.89
2022-12-11T15:22:13.743Z,67.11
2022-12-11T15:27:34.767Z,66.06
2022-12-11T15:32:40.311Z,65.05
2022-12-11T15:37:55.547Z,62.57
2022-12-11T15:43:02.841Z,60.85
2022-12-11T15:48:11.963Z,58.93
2022-12-11T15:53:17.937Z,58.06
2022-12-11T15:58:25.199Z,56.72
2022-12-11T16:03:30.999Z,56.42
2022-12-11T16:08:37.273Z,54.57
2022-12-11T16:13:42.739Z,54.49
2022-12-11T16:18:49.081Z,52.98
2022-12-11T16:23:54.894Z,52.59
2022-12-11T16:29:00.469Z,51.93
2022-12-11T16:34:05.974Z,49.80
2022-12-11T16:39:13.097Z,47.82
2022-12-11T16:44:26.027Z,46.50
2022-12-11T16:49:32.104Z,46.69
2022-12-11T16:54:37.400Z,46.74
2022-12-11T16:59:44.004Z,46.30
2022-12-11T17:04:53.654Z,45.85
2022-12-11T17:10:02.995Z,46.26
2022-12-11T17:15:11.476Z,46.28
2022-12-11T17:20:18.746Z,46.25
2022-12-11T17:25:25.423Z,46.87
2022-12-11T17:30:30.783Z,46.83
2022-12-11T17:35:37.137Z,45.82
2022-12-11T17:40:44.262Z,45.59
2022-12-11T17:45:53.185Z,45.42
2022-12-11T17:50:59.223Z,44.72
2022-12-11T17:56:07.586Z,44.36
2022-12-11T18:01:14.329Z,44.28
2022-12-11T18:06:20.114Z,44.49
2022-12-11T18:11:26.389Z,44.52
2022-12-11T18:16:36.130Z,45.19
2022-12-11T18:21:44.347Z,44.97
2022-12-11T18:26:50.554Z,45.17
2022-12-11T18:31:56.300Z,44.63
2022-12-11T18:37:01.931Z,45.53
2022-12-11T18:47:39.461Z,45.96
2022-12-11T18:52:45.113Z,46.80
2022-12-11T18:57:50.846Z,46.34
2022-12-11T19:02:58.746Z,46.87
2022-12-11T19:08:04.866Z,47.17
2022-12-11T19:13:11.200Z,47.21
2022-12-11T19:18:16.713Z,47.76
2022-12-11T19:23:23.660Z,48.37
2022-12-11T19:28:29.207Z,48.62
2022-12-11T19:33:35.329Z,49.00
2022-12-11T19:38:42.141Z,48.82
2022-12-11T19:43:48.253Z,49.29
2022-12-11T19:48:55.818Z,49.18
2022-12-11T19:54:07.619Z,49.57
2022-12-11T19:59:17.261Z,49.57
2022-12-11T20:04:22.903Z,50.07
2022-12-11T20:09:28.434Z,50.07
2022-12-11T20:14:33.871Z,50.31
2022-12-11T20:19:39.718Z,50.15
2022-12-11T20:24:45.301Z,50.70
2022-12-11T20:29:50.756Z,50.93
2022-12-11T20:34:59.895Z,51.12
2022-12-11T20:40:06.495Z,51.07
2022-12-11T20:45:12.801Z,51.75
2022-12-11T20:50:18.694Z,51.88
2022-12-11T20:55:24.215Z,52.32
2022-12-11T21:00:29.984Z,52.76
2022-12-11T21:05:42.794Z,52.54
2022-12-11T21:10:48.422Z,52.64
2022-12-11T21:16:00.588Z,52.88
2022-12-11T21:21:06.985Z,53.39
2022-12-11T21:26:12.601Z,53.25
2022-12-11T21:31:20.327Z,53.40
2022-12-11T21:36:25.886Z,53.30
2022-12-11T21:41:32.290Z,53.14
2022-12-11T21:46:37.966Z,53.19
2022-12-11T21:51:47.036Z,52.60
2022-12-11T21:56:56.512Z,52.77
2022-12-11T22:02:02.255Z,52.22
2022-12-11T22:07:08.038Z,52.18
2022-12-11T22:12:27.597Z,52.04
2022-12-11T22:17:33.691Z,52.11
2022-12-11T22:22:39.014Z,52.02
2022-12-11T22:27:44.624Z,51.96
2022-12-11T22:32:50.265Z,52.17
2022-12-11T22:37:56.049Z,52.38
2022-12-11T22:43:01.596Z,51.99
2022-12-11T22:48:09.986Z,52.52
2022-12-11T22:53:15.587Z,52.71
2022-12-11T22:58:22.129Z,52.39
2022-12-11T23:03:28.663Z,52.94
2022-12-11T23:08:35.051Z,52.67
2022-12-11T23:13:41.084Z,52.95
2022-12-11T23:18:46.927Z,52.97
2022-12-11T23:23:52.794Z,52.93
2022-12-11T23:29:00.410Z,53.36
2022-12-11T23:34:06.022Z,53.78
2022-12-11T23:39:12.015Z,54.10
2022-12-11T23:44:17.499Z,53.83
2022-12-11T23:49:23.141Z,53.76
2022-12-11T23:54:28.741Z,54.20
2022-12-11T23:59:34.338Z,54.49
